Terminal Aerodrome Forecast
Issued by NWS Twin Cities, MN

Home | Current Version | Previous Version | Graphics & Text | Print | Product List | Glossary On
Versions: 1 2 3 4 5 6 7 8 9 10 11 12 13 14 15 16 17 18 19 20
719
FTUS43 KMPX 231755
TAFSTC
TAF
KSTC 231755Z 2318/2418 09010KT P6SM BKN015 OVC035
     FM232000 11010G16KT P6SM -SHRA BKN020 OVC040
     FM240000 11009KT P6SM SCT008 OVC012
     FM240600 11008KT 5SM BR OVC005
     FM241500 12010KT P6SM OVC008=

USA.gov is the U.S. government's official web portal to all federal, state and local government web resources and services.